sensor_id;sensor_type;location;lat;lon;timestamp;P1;durP1;ratioP1;P2;durP2;ratioP2
69534;SDS011;56754;51.568;5.048;2023-11-21T00:01:41;12.67;;;6.10;;
69534;SDS011;56754;51.568;5.048;2023-11-21T00:04:06;12.10;;;5.80;;
69534;SDS011;56754;51.568;5.048;2023-11-21T00:06:32;12.80;;;5.97;;
69534;SDS011;56754;51.568;5.048;2023-11-21T00:08:57;11.13;;;5.53;;
69534;SDS011;56754;51.568;5.048;2023-11-21T00:11:22;12.30;;;5.87;;
69534;SDS011;56754;51.568;5.048;2023-11-21T00:13:47;11.20;;;5.40;;
69534;SDS011;56754;51.568;5.048;2023-11-21T00:16:13;12.10;;;5.93;;
69534;SDS011;56754;51.568;5.048;2023-11-21T00:18:38;13.37;;;5.80;;
69534;SDS011;56754;51.568;5.048;2023-11-21T00:21:03;13.27;;;5.97;;
69534;SDS011;56754;51.568;5.048;2023-11-21T00:23:29;12.30;;;6.05;;
69534;SDS011;56754;51.568;5.048;2023-11-21T00:25:54;10.13;;;5.30;;
69534;SDS011;56754;51.568;5.048;2023-11-21T00:28:19;11.80;;;5.87;;
69534;SDS011;56754;51.568;5.048;2023-11-21T00:30:45;14.70;;;5.73;;
69534;SDS011;56754;51.568;5.048;2023-11-21T00:33:10;11.60;;;5.70;;
69534;SDS011;56754;51.568;5.048;2023-11-21T00:35:35;10.83;;;5.73;;
69534;SDS011;56754;51.568;5.048;2023-11-21T00:38:01;13.57;;;6.17;;
69534;SDS011;56754;51.568;5.048;2023-11-21T00:40:26;13.00;;;6.28;;
69534;SDS011;56754;51.568;5.048;2023-11-21T00:42:51;13.80;;;5.77;;
69534;SDS011;56754;51.568;5.048;2023-11-21T00:45:16;11.97;;;5.80;;
69534;SDS011;56754;51.568;5.048;2023-11-21T00:47:42;12.23;;;6.13;;
69534;SDS011;56754;51.568;5.048;2023-11-21T00:50:07;10.97;;;5.63;;
69534;SDS011;56754;51.568;5.048;2023-11-21T00:52:33;14.63;;;6.45;;
69534;SDS011;56754;51.568;5.048;2023-11-21T00:54:58;11.77;;;6.03;;
69534;SDS011;56754;51.568;5.048;2023-11-21T00:57:24;13.53;;;6.17;;
69534;SDS011;56754;51.568;5.048;2023-11-21T00:59:49;12.57;;;5.83;;
69534;SDS011;56754;51.568;5.048;2023-11-21T01:02:15;12.45;;;6.28;;
69534;SDS011;56754;51.568;5.048;2023-11-21T01:04:40;11.17;;;6.13;;
69534;SDS011;56754;51.568;5.048;2023-11-21T01:07:05;11.97;;;6.00;;
69534;SDS011;56754;51.568;5.048;2023-11-21T01:09:30;12.70;;;5.63;;
69534;SDS011;56754;51.568;5.048;2023-11-21T01:11:56;11.03;;;5.97;;
69534;SDS011;56754;51.568;5.048;2023-11-21T01:14:21;12.77;;;5.87;;
69534;SDS011;56754;51.568;5.048;2023-11-21T01:16:46;11.53;;;5.83;;
69534;SDS011;56754;51.568;5.048;2023-11-21T01:19:11;11.00;;;5.80;;
69534;SDS011;56754;51.568;5.048;2023-11-21T01:21:37;10.93;;;5.77;;
69534;SDS011;56754;51.568;5.048;2023-11-21T01:24:02;10.95;;;5.80;;
69534;SDS011;56754;51.568;5.048;2023-11-21T01:26:28;10.93;;;6.00;;
69534;SDS011;56754;51.568;5.048;2023-11-21T01:28:53;11.70;;;5.90;;
69534;SDS011;56754;51.568;5.048;2023-11-21T01:31:19;10.13;;;5.40;;
69534;SDS011;56754;51.568;5.048;2023-11-21T01:33:44;11.33;;;5.47;;
69534;SDS011;56754;51.568;5.048;2023-11-21T01:36:09;11.47;;;5.87;;
69534;SDS011;56754;51.568;5.048;2023-11-21T01:38:35;10.27;;;5.67;;
69534;SDS011;56754;51.568;5.048;2023-11-21T01:41:00;9.50;;;5.00;;
69534;SDS011;56754;51.568;5.048;2023-11-21T01:43:25;9.37;;;5.07;;
69534;SDS011;56754;51.568;5.048;2023-11-21T01:45:51;10.67;;;5.50;;
69534;SDS011;56754;51.568;5.048;2023-11-21T01:48:16;9.10;;;5.20;;
69534;SDS011;56754;51.568;5.048;2023-11-21T01:50:41;9.20;;;5.13;;
69534;SDS011;56754;51.568;5.048;2023-11-21T01:53:07;9.15;;;5.25;;
69534;SDS011;56754;51.568;5.048;2023-11-21T01:55:32;8.83;;;5.37;;
69534;SDS011;56754;51.568;5.048;2023-11-21T01:57:58;10.27;;;5.20;;
69534;SDS011;56754;51.568;5.048;2023-11-21T02:00:23;10.05;;;4.80;;
69534;SDS011;56754;51.568;5.048;2023-11-21T02:02:49;8.93;;;4.90;;
69534;SDS011;56754;51.568;5.048;2023-11-21T02:05:15;8.40;;;4.70;;
69534;SDS011;56754;51.568;5.048;2023-11-21T02:07:41;8.40;;;4.70;;
69534;SDS011;56754;51.568;5.048;2023-11-21T02:10:07;8.30;;;5.00;;
69534;SDS011;56754;51.568;5.048;2023-11-21T02:12:32;9.20;;;4.67;;
69534;SDS011;56754;51.568;5.048;2023-11-21T02:14:58;9.50;;;4.90;;
69534;SDS011;56754;51.568;5.048;2023-11-21T02:17:23;11.30;;;5.30;;
69534;SDS011;56754;51.568;5.048;2023-11-21T02:19:49;8.90;;;5.10;;
69534;SDS011;56754;51.568;5.048;2023-11-21T02:22:14;9.30;;;5.47;;
69534;SDS011;56754;51.568;5.048;2023-11-21T02:24:40;9.55;;;4.80;;
69534;SDS011;56754;51.568;5.048;2023-11-21T02:27:06;10.47;;;4.97;;
69534;SDS011;56754;51.568;5.048;2023-11-21T02:29:31;8.50;;;4.57;;
69534;SDS011;56754;51.568;5.048;2023-11-21T02:31:56;9.70;;;5.00;;
69534;SDS011;56754;51.568;5.048;2023-11-21T02:34:22;8.73;;;5.20;;
69534;SDS011;56754;51.568;5.048;2023-11-21T02:36:48;9.45;;;4.88;;
69534;SDS011;56754;51.568;5.048;2023-11-21T02:39:13;7.93;;;4.67;;
69534;SDS011;56754;51.568;5.048;2023-11-21T02:41:39;10.80;;;4.97;;
69534;SDS011;56754;51.568;5.048;2023-11-21T02:44:05;9.33;;;4.80;;
69534;SDS011;56754;51.568;5.048;2023-11-21T02:46:30;8.77;;;5.00;;
69534;SDS011;56754;51.568;5.048;2023-11-21T02:48:56;8.57;;;4.97;;
69534;SDS011;56754;51.568;5.048;2023-11-21T02:51:21;8.93;;;5.00;;
69534;SDS011;56754;51.568;5.048;2023-11-21T02:53:46;8.53;;;4.87;;
69534;SDS011;56754;51.568;5.048;2023-11-21T02:56:12;9.85;;;5.28;;
69534;SDS011;56754;51.568;5.048;2023-11-21T02:58:40;8.33;;;4.70;;
69534;SDS011;56754;51.568;5.048;2023-11-21T03:01:06;9.20;;;5.15;;
69534;SDS011;56754;51.568;5.048;2023-11-21T03:03:32;9.70;;;4.90;;
69534;SDS011;56754;51.568;5.048;2023-11-21T03:05:57;9.03;;;4.77;;
69534;SDS011;56754;51.568;5.048;2023-11-21T03:08:22;9.57;;;4.93;;
69534;SDS011;56754;51.568;5.048;2023-11-21T03:10:48;10.13;;;5.67;;
69534;SDS011;56754;51.568;5.048;2023-11-21T03:13:13;10.43;;;5.40;;
69534;SDS011;56754;51.568;5.048;2023-11-21T03:15:38;8.27;;;4.63;;
69534;SDS011;56754;51.568;5.048;2023-11-21T03:18:03;8.27;;;4.90;;
69534;SDS011;56754;51.568;5.048;2023-11-21T03:20:29;9.20;;;5.43;;
69534;SDS011;56754;51.568;5.048;2023-11-21T03:22:54;10.17;;;5.23;;
69534;SDS011;56754;51.568;5.048;2023-11-21T03:25:19;9.48;;;5.43;;
69534;SDS011;56754;51.568;5.048;2023-11-21T03:27:45;9.90;;;5.77;;
69534;SDS011;56754;51.568;5.048;2023-11-21T03:30:13;9.90;;;5.43;;
69534;SDS011;56754;51.568;5.048;2023-11-21T03:32:38;11.70;;;5.88;;
69534;SDS011;56754;51.568;5.048;2023-11-21T03:35:04;9.00;;;5.30;;
69534;SDS011;56754;51.568;5.048;2023-11-21T03:37:29;10.67;;;5.60;;
69534;SDS011;56754;51.568;5.048;2023-11-21T03:39:55;10.03;;;5.17;;
69534;SDS011;56754;51.568;5.048;2023-11-21T03:42:21;8.45;;;4.78;;
69534;SDS011;56754;51.568;5.048;2023-11-21T03:44:46;10.73;;;5.63;;
69534;SDS011;56754;51.568;5.048;2023-11-21T03:47:11;9.83;;;5.60;;
69534;SDS011;56754;51.568;5.048;2023-11-21T03:49:37;9.87;;;5.37;;
69534;SDS011;56754;51.568;5.048;2023-11-21T03:52:02;11.30;;;6.25;;
69534;SDS011;56754;51.568;5.048;2023-11-21T03:54:28;10.90;;;5.87;;
69534;SDS011;56754;51.568;5.048;2023-11-21T03:56:53;9.93;;;5.70;;
69534;SDS011;56754;51.568;5.048;2023-11-21T03:59:18;10.50;;;5.37;;
69534;SDS011;56754;51.568;5.048;2023-11-21T04:01:44;10.20;;;5.40;;
69534;SDS011;56754;51.568;5.048;2023-11-21T04:04:09;9.90;;;5.03;;
69534;SDS011;56754;51.568;5.048;2023-11-21T04:06:35;9.63;;;5.30;;
69534;SDS011;56754;51.568;5.048;2023-11-21T04:09:00;9.20;;;5.10;;
69534;SDS011;56754;51.568;5.048;2023-11-21T04:11:25;10.03;;;5.37;;
69534;SDS011;56754;51.568;5.048;2023-11-21T04:13:50;9.85;;;5.50;;
69534;SDS011;56754;51.568;5.048;2023-11-21T04:16:16;11.17;;;5.80;;
69534;SDS011;56754;51.568;5.048;2023-11-21T04:18:41;10.03;;;5.00;;
69534;SDS011;56754;51.568;5.048;2023-11-21T04:21:06;8.73;;;4.97;;
69534;SDS011;56754;51.568;5.048;2023-11-21T04:23:32;13.75;;;5.85;;
69534;SDS011;56754;51.568;5.048;2023-11-21T04:25:58;11.93;;;5.53;;
69534;SDS011;56754;51.568;5.048;2023-11-21T04:28:23;13.40;;;5.93;;
69534;SDS011;56754;51.568;5.048;2023-11-21T04:30:48;12.27;;;6.17;;
69534;SDS011;56754;51.568;5.048;2023-11-21T04:33:14;14.40;;;6.07;;
69534;SDS011;56754;51.568;5.048;2023-11-21T04:35:39;14.43;;;5.75;;
69534;SDS011;56754;51.568;5.048;2023-11-21T04:38:04;13.40;;;6.40;;
69534;SDS011;56754;51.568;5.048;2023-11-21T04:40:29;11.90;;;5.87;;
69534;SDS011;56754;51.568;5.048;2023-11-21T04:42:55;12.53;;;5.87;;
69534;SDS011;56754;51.568;5.048;2023-11-21T04:45:20;13.30;;;5.93;;
69534;SDS011;56754;51.568;5.048;2023-11-21T04:47:45;15.00;;;6.17;;
69534;SDS011;56754;51.568;5.048;2023-11-21T04:50:10;14.03;;;6.43;;
69534;SDS011;56754;51.568;5.048;2023-11-21T04:52:36;12.80;;;6.27;;
69534;SDS011;56754;51.568;5.048;2023-11-21T04:55:01;12.57;;;6.13;;
69534;SDS011;56754;51.568;5.048;2023-11-21T04:57:26;11.70;;;5.83;;
69534;SDS011;56754;51.568;5.048;2023-11-21T04:59:52;14.47;;;6.37;;
69534;SDS011;56754;51.568;5.048;2023-11-21T05:02:17;12.03;;;5.40;;
69534;SDS011;56754;51.568;5.048;2023-11-21T05:04:42;14.87;;;6.63;;
69534;SDS011;56754;51.568;5.048;2023-11-21T05:07:08;13.37;;;5.73;;
69534;SDS011;56754;51.568;5.048;2023-11-21T05:09:33;15.90;;;6.43;;
69534;SDS011;56754;51.568;5.048;2023-11-21T05:11:58;14.20;;;6.47;;
69534;SDS011;56754;51.568;5.048;2023-11-21T05:14:23;19.07;;;6.37;;
69534;SDS011;56754;51.568;5.048;2023-11-21T05:16:49;15.03;;;6.60;;
69534;SDS011;56754;51.568;5.048;2023-11-21T05:19:14;13.17;;;6.10;;
69534;SDS011;56754;51.568;5.048;2023-11-21T05:21:39;16.53;;;6.20;;
69534;SDS011;56754;51.568;5.048;2023-11-21T05:24:05;17.37;;;6.87;;
69534;SDS011;56754;51.568;5.048;2023-11-21T05:26:30;12.70;;;5.70;;
69534;SDS011;56754;51.568;5.048;2023-11-21T05:28:56;15.07;;;6.00;;
69534;SDS011;56754;51.568;5.048;2023-11-21T05:31:21;12.23;;;6.07;;
69534;SDS011;56754;51.568;5.048;2023-11-21T05:33:47;11.43;;;5.20;;
69534;SDS011;56754;51.568;5.048;2023-11-21T05:36:12;14.53;;;5.90;;
69534;SDS011;56754;51.568;5.048;2023-11-21T05:38:37;14.70;;;5.90;;
69534;SDS011;56754;51.568;5.048;2023-11-21T05:41:03;13.23;;;6.03;;
69534;SDS011;56754;51.568;5.048;2023-11-21T05:43:28;12.87;;;5.47;;
69534;SDS011;56754;51.568;5.048;2023-11-21T05:45:53;14.47;;;5.70;;
69534;SDS011;56754;51.568;5.048;2023-11-21T05:48:19;12.53;;;5.80;;
69534;SDS011;56754;51.568;5.048;2023-11-21T05:50:44;11.97;;;5.27;;
69534;SDS011;56754;51.568;5.048;2023-11-21T05:53:09;12.87;;;5.87;;
69534;SDS011;56754;51.568;5.048;2023-11-21T05:58:18;14.38;;;5.97;;
69534;SDS011;56754;51.568;5.048;2023-11-21T06:00:44;11.23;;;5.50;;
69534;SDS011;56754;51.568;5.048;2023-11-21T06:03:09;12.47;;;6.07;;
69534;SDS011;56754;51.568;5.048;2023-11-21T06:05:34;14.95;;;5.82;;
69534;SDS011;56754;51.568;5.048;2023-11-21T06:08:00;13.13;;;5.80;;
69534;SDS011;56754;51.568;5.048;2023-11-21T06:10:25;12.13;;;5.90;;
69534;SDS011;56754;51.568;5.048;2023-11-21T06:12:51;12.80;;;5.57;;
69534;SDS011;56754;51.568;5.048;2023-11-21T06:15:16;13.05;;;5.93;;
69534;SDS011;56754;51.568;5.048;2023-11-21T06:17:42;12.13;;;5.73;;
69534;SDS011;56754;51.568;5.048;2023-11-21T06:20:08;11.00;;;5.37;;
69534;SDS011;56754;51.568;5.048;2023-11-21T06:22:36;12.15;;;6.10;;
69534;SDS011;56754;51.568;5.048;2023-11-21T06:25:04;11.50;;;5.85;;
69534;SDS011;56754;51.568;5.048;2023-11-21T06:27:34;13.68;;;6.05;;
69534;SDS011;56754;51.568;5.048;2023-11-21T06:30:03;11.52;;;5.57;;
69534;SDS011;56754;51.568;5.048;2023-11-21T06:32:29;21.67;;;5.97;;
69534;SDS011;56754;51.568;5.048;2023-11-21T06:34:58;11.80;;;5.22;;
69534;SDS011;56754;51.568;5.048;2023-11-21T06:37:23;11.85;;;5.25;;
69534;SDS011;56754;51.568;5.048;2023-11-21T06:39:49;11.87;;;5.30;;
69534;SDS011;56754;51.568;5.048;2023-11-21T06:42:14;13.27;;;5.28;;
69534;SDS011;56754;51.568;5.048;2023-11-21T06:44:39;12.17;;;5.70;;
69534;SDS011;56754;51.568;5.048;2023-11-21T06:47:05;12.03;;;5.37;;
69534;SDS011;56754;51.568;5.048;2023-11-21T06:49:30;11.50;;;5.80;;
69534;SDS011;56754;51.568;5.048;2023-11-21T06:51:55;14.47;;;5.60;;
69534;SDS011;56754;51.568;5.048;2023-11-21T06:54:20;13.13;;;5.53;;
69534;SDS011;56754;51.568;5.048;2023-11-21T06:56:46;11.77;;;5.37;;
69534;SDS011;56754;51.568;5.048;2023-11-21T06:59:12;13.27;;;5.28;;
69534;SDS011;56754;51.568;5.048;2023-11-21T07:01:37;11.27;;;5.10;;
69534;SDS011;56754;51.568;5.048;2023-11-21T07:04:02;12.80;;;5.77;;
69534;SDS011;56754;51.568;5.048;2023-11-21T07:06:28;12.05;;;5.13;;
69534;SDS011;56754;51.568;5.048;2023-11-21T07:08:53;12.93;;;5.80;;
69534;SDS011;56754;51.568;5.048;2023-11-21T07:11:18;11.73;;;5.27;;
69534;SDS011;56754;51.568;5.048;2023-11-21T07:13:43;12.27;;;5.53;;
69534;SDS011;56754;51.568;5.048;2023-11-21T07:16:09;9.80;;;5.00;;
69534;SDS011;56754;51.568;5.048;2023-11-21T07:18:34;13.10;;;5.53;;
69534;SDS011;56754;51.568;5.048;2023-11-21T07:20:59;10.77;;;5.10;;
69534;SDS011;56754;51.568;5.048;2023-11-21T07:23:24;10.33;;;5.10;;
69534;SDS011;56754;51.568;5.048;2023-11-21T07:25:50;12.57;;;5.40;;
69534;SDS011;56754;51.568;5.048;2023-11-21T07:28:15;13.43;;;5.07;;
69534;SDS011;56754;51.568;5.048;2023-11-21T07:30:40;12.30;;;5.28;;
69534;SDS011;56754;51.568;5.048;2023-11-21T07:33:05;9.53;;;4.93;;
69534;SDS011;56754;51.568;5.048;2023-11-21T07:35:31;13.97;;;5.17;;
69534;SDS011;56754;51.568;5.048;2023-11-21T07:37:56;11.80;;;5.90;;
69534;SDS011;56754;51.568;5.048;2023-11-21T07:40:21;10.77;;;5.70;;
69534;SDS011;56754;51.568;5.048;2023-11-21T07:42:47;10.20;;;5.27;;
69534;SDS011;56754;51.568;5.048;2023-11-21T07:45:12;11.80;;;5.20;;
69534;SDS011;56754;51.568;5.048;2023-11-21T07:47:37;10.17;;;4.37;;
69534;SDS011;56754;51.568;5.048;2023-11-21T07:50:03;9.77;;;4.83;;
69534;SDS011;56754;51.568;5.048;2023-11-21T07:52:28;8.98;;;4.07;;
69534;SDS011;56754;51.568;5.048;2023-11-21T07:54:54;9.77;;;4.43;;
69534;SDS011;56754;51.568;5.048;2023-11-21T07:57:19;8.33;;;3.83;;
69534;SDS011;56754;51.568;5.048;2023-11-21T07:59:44;10.15;;;4.60;;
69534;SDS011;56754;51.568;5.048;2023-11-21T08:02:10;9.07;;;4.03;;
69534;SDS011;56754;51.568;5.048;2023-11-21T08:04:35;9.00;;;3.83;;
69534;SDS011;56754;51.568;5.048;2023-11-21T08:07:00;8.50;;;3.93;;
69534;SDS011;56754;51.568;5.048;2023-11-21T08:09:26;8.88;;;4.22;;
69534;SDS011;56754;51.568;5.048;2023-11-21T08:11:52;9.13;;;3.90;;
69534;SDS011;56754;51.568;5.048;2023-11-21T08:14:17;9.27;;;4.33;;
69534;SDS011;56754;51.568;5.048;2023-11-21T08:16:42;8.03;;;4.10;;
69534;SDS011;56754;51.568;5.048;2023-11-21T08:19:07;10.37;;;4.17;;
69534;SDS011;56754;51.568;5.048;2023-11-21T08:21:33;8.10;;;4.10;;
69534;SDS011;56754;51.568;5.048;2023-11-21T08:23:58;10.93;;;4.40;;
69534;SDS011;56754;51.568;5.048;2023-11-21T08:26:23;9.67;;;4.17;;
69534;SDS011;56754;51.568;5.048;2023-11-21T08:28:49;9.03;;;4.10;;
69534;SDS011;56754;51.568;5.048;2023-11-21T08:31:14;8.77;;;4.13;;
69534;SDS011;56754;51.568;5.048;2023-11-21T08:33:40;9.37;;;4.13;;
69534;SDS011;56754;51.568;5.048;2023-11-21T08:36:08;10.10;;;4.30;;
69534;SDS011;56754;51.568;5.048;2023-11-21T08:38:34;9.27;;;4.23;;
69534;SDS011;56754;51.568;5.048;2023-11-21T08:41:01;10.32;;;4.65;;
69534;SDS011;56754;51.568;5.048;2023-11-21T08:43:26;9.83;;;4.40;;
69534;SDS011;56754;51.568;5.048;2023-11-21T08:45:51;8.47;;;4.17;;
69534;SDS011;56754;51.568;5.048;2023-11-21T08:48:16;11.47;;;4.93;;
69534;SDS011;56754;51.568;5.048;2023-11-21T08:50:42;9.38;;;4.18;;
69534;SDS011;56754;51.568;5.048;2023-11-21T08:53:07;10.70;;;4.33;;
69534;SDS011;56754;51.568;5.048;2023-11-21T08:55:32;7.83;;;3.97;;
69534;SDS011;56754;51.568;5.048;2023-11-21T08:57:57;9.43;;;4.10;;
69534;SDS011;56754;51.568;5.048;2023-11-21T09:00:23;9.20;;;4.00;;
69534;SDS011;56754;51.568;5.048;2023-11-21T09:02:48;11.90;;;4.23;;
69534;SDS011;56754;51.568;5.048;2023-11-21T09:05:13;9.13;;;4.33;;
69534;SDS011;56754;51.568;5.048;2023-11-21T09:07:40;10.00;;;4.80;;
69534;SDS011;56754;51.568;5.048;2023-11-21T09:10:06;13.95;;;4.88;;
69534;SDS011;56754;51.568;5.048;2023-11-21T09:12:32;9.03;;;4.10;;
69534;SDS011;56754;51.568;5.048;2023-11-21T09:14:58;11.43;;;4.68;;
69534;SDS011;56754;51.568;5.048;2023-11-21T09:17:23;8.97;;;4.10;;
69534;SDS011;56754;51.568;5.048;2023-11-21T09:19:49;12.43;;;4.40;;
69534;SDS011;56754;51.568;5.048;2023-11-21T09:22:14;9.50;;;3.90;;
69534;SDS011;56754;51.568;5.048;2023-11-21T09:24:39;9.23;;;3.90;;
69534;SDS011;56754;51.568;5.048;2023-11-21T09:27:05;11.33;;;4.47;;
69534;SDS011;56754;51.568;5.048;2023-11-21T09:29:30;13.30;;;4.30;;
69534;SDS011;56754;51.568;5.048;2023-11-21T09:31:55;9.00;;;3.93;;
69534;SDS011;56754;51.568;5.048;2023-11-21T09:34:21;10.80;;;3.90;;
69534;SDS011;56754;51.568;5.048;2023-11-21T09:36:47;8.75;;;3.60;;
69534;SDS011;56754;51.568;5.048;2023-11-21T09:39:13;8.93;;;3.92;;
69534;SDS011;56754;51.568;5.048;2023-11-21T09:41:51;9.45;;;3.30;;
69534;SDS011;56754;51.568;5.048;2023-11-21T09:44:20;9.00;;;3.40;;
69534;SDS011;56754;51.568;5.048;2023-11-21T09:46:53;9.90;;;3.88;;
69534;SDS011;56754;51.568;5.048;2023-11-21T09:49:22;7.95;;;3.28;;
69534;SDS011;56754;51.568;5.048;2023-11-21T09:51:50;7.50;;;3.42;;
69534;SDS011;56754;51.568;5.048;2023-11-21T09:54:20;7.82;;;3.65;;
69534;SDS011;56754;51.568;5.048;2023-11-21T09:56:46;7.50;;;3.50;;
69534;SDS011;56754;51.568;5.048;2023-11-21T09:59:13;9.40;;;3.03;;
69534;SDS011;56754;51.568;5.048;2023-11-21T10:01:39;8.25;;;3.67;;
69534;SDS011;56754;51.568;5.048;2023-11-21T10:04:06;7.80;;;3.40;;
69534;SDS011;56754;51.568;5.048;2023-11-21T10:06:31;10.00;;;3.43;;
69534;SDS011;56754;51.568;5.048;2023-11-21T10:08:57;6.10;;;3.00;;
69534;SDS011;56754;51.568;5.048;2023-11-21T10:11:27;6.82;;;3.20;;
69534;SDS011;56754;51.568;5.048;2023-11-21T10:13:54;8.30;;;3.00;;
69534;SDS011;56754;51.568;5.048;2023-11-21T10:16:19;7.82;;;3.40;;
69534;SDS011;56754;51.568;5.048;2023-11-21T10:18:48;10.02;;;3.45;;
69534;SDS011;56754;51.568;5.048;2023-11-21T10:21:16;6.25;;;2.92;;
69534;SDS011;56754;51.568;5.048;2023-11-21T10:23:42;6.93;;;3.10;;
69534;SDS011;56754;51.568;5.048;2023-11-21T10:26:07;7.00;;;2.97;;
69534;SDS011;56754;51.568;5.048;2023-11-21T10:28:37;8.33;;;2.90;;
69534;SDS011;56754;51.568;5.048;2023-11-21T10:31:02;6.95;;;2.72;;
69534;SDS011;56754;51.568;5.048;2023-11-21T10:33:28;7.80;;;2.87;;
69534;SDS011;56754;51.568;5.048;2023-11-21T10:35:53;6.77;;;2.93;;
69534;SDS011;56754;51.568;5.048;2023-11-21T10:38:18;8.05;;;2.92;;
69534;SDS011;56754;51.568;5.048;2023-11-21T10:40:44;7.10;;;2.87;;
69534;SDS011;56754;51.568;5.048;2023-11-21T10:43:10;6.93;;;2.90;;
69534;SDS011;56754;51.568;5.048;2023-11-21T10:45:38;7.22;;;2.95;;
69534;SDS011;56754;51.568;5.048;2023-11-21T10:48:07;6.00;;;2.70;;
69534;SDS011;56754;51.568;5.048;2023-11-21T10:50:34;5.50;;;2.60;;
69534;SDS011;56754;51.568;5.048;2023-11-21T10:53:00;7.30;;;2.97;;
69534;SDS011;56754;51.568;5.048;2023-11-21T10:55:27;7.68;;;3.20;;
69534;SDS011;56754;51.568;5.048;2023-11-21T10:57:52;7.13;;;2.57;;
69534;SDS011;56754;51.568;5.048;2023-11-21T11:00:19;6.55;;;2.60;;
69534;SDS011;56754;51.568;5.048;2023-11-21T11:02:45;7.00;;;2.70;;
69534;SDS011;56754;51.568;5.048;2023-11-21T11:05:11;7.30;;;3.22;;
69534;SDS011;56754;51.568;5.048;2023-11-21T11:07:37;7.73;;;3.50;;
69534;SDS011;56754;51.568;5.048;2023-11-21T11:10:08;7.60;;;3.40;;
69534;SDS011;56754;51.568;5.048;2023-11-21T11:12:34;7.65;;;3.30;;
69534;SDS011;56754;51.568;5.048;2023-11-21T11:15:00;7.50;;;3.65;;
69534;SDS011;56754;51.568;5.048;2023-11-21T11:17:26;7.40;;;3.00;;
69534;SDS011;56754;51.568;5.048;2023-11-21T11:19:51;7.75;;;3.20;;
69534;SDS011;56754;51.568;5.048;2023-11-21T11:22:24;6.20;;;2.90;;
69534;SDS011;56754;51.568;5.048;2023-11-21T11:27:36;6.13;;;2.80;;
69534;SDS011;56754;51.568;5.048;2023-11-21T11:36:04;6.88;;;2.65;;
69534;SDS011;56754;51.568;5.048;2023-11-21T11:38:33;6.47;;;2.70;;
69534;SDS011;56754;51.568;5.048;2023-11-21T11:41:01;6.13;;;2.53;;
69534;SDS011;56754;51.568;5.048;2023-11-21T11:43:27;7.30;;;2.80;;
69534;SDS011;56754;51.568;5.048;2023-11-21T11:45:56;7.60;;;2.50;;
69534;SDS011;56754;51.568;5.048;2023-11-21T11:48:22;6.65;;;2.60;;
69534;SDS011;56754;51.568;5.048;2023-11-21T11:51:00;5.97;;;2.50;;
69534;SDS011;56754;51.568;5.048;2023-11-21T11:53:36;7.28;;;2.50;;
69534;SDS011;56754;51.568;5.048;2023-11-21T11:56:22;5.60;;;2.33;;
69534;SDS011;56754;51.568;5.048;2023-11-21T11:58:55;5.35;;;2.40;;
69534;SDS011;56754;51.568;5.048;2023-11-21T12:01:24;6.88;;;2.83;;
69534;SDS011;56754;51.568;5.048;2023-11-21T12:06:37;6.47;;;2.60;;
69534;SDS011;56754;51.568;5.048;2023-11-21T12:09:02;5.93;;;2.77;;
69534;SDS011;56754;51.568;5.048;2023-11-21T12:11:31;7.10;;;2.47;;
69534;SDS011;56754;51.568;5.048;2023-11-21T12:13:58;7.07;;;2.45;;
69534;SDS011;56754;51.568;5.048;2023-11-21T12:16:24;7.37;;;2.57;;
69534;SDS011;56754;51.568;5.048;2023-11-21T12:18:50;6.15;;;2.55;;
69534;SDS011;56754;51.568;5.048;2023-11-21T12:21:15;6.63;;;2.80;;
69534;SDS011;56754;51.568;5.048;2023-11-21T12:23:41;7.68;;;2.97;;
69534;SDS011;56754;51.568;5.048;2023-11-21T12:26:06;6.20;;;2.50;;
69534;SDS011;56754;51.568;5.048;2023-11-21T12:28:32;7.77;;;2.87;;
69534;SDS011;56754;51.568;5.048;2023-11-21T12:30:57;9.70;;;3.03;;
69534;SDS011;56754;51.568;5.048;2023-11-21T12:33:22;6.78;;;3.00;;
69534;SDS011;56754;51.568;5.048;2023-11-21T12:35:48;8.10;;;3.63;;
69534;SDS011;56754;51.568;5.048;2023-11-21T12:38:13;7.07;;;3.00;;
69534;SDS011;56754;51.568;5.048;2023-11-21T12:40:38;17.80;;;4.13;;
69534;SDS011;56754;51.568;5.048;2023-11-21T12:43:03;8.10;;;3.23;;
69534;SDS011;56754;51.568;5.048;2023-11-21T12:45:29;6.47;;;2.97;;
69534;SDS011;56754;51.568;5.048;2023-11-21T12:48:04;6.28;;;2.75;;
69534;SDS011;56754;51.568;5.048;2023-11-21T12:50:31;7.15;;;3.00;;
69534;SDS011;56754;51.568;5.048;2023-11-21T12:55:36;9.10;;;3.38;;
69534;SDS011;56754;51.568;5.048;2023-11-21T12:58:02;6.93;;;3.30;;
69534;SDS011;56754;51.568;5.048;2023-11-21T13:00:32;6.17;;;2.67;;
69534;SDS011;56754;51.568;5.048;2023-11-21T13:02:58;6.38;;;3.08;;
69534;SDS011;56754;51.568;5.048;2023-11-21T13:05:25;5.95;;;2.67;;
69534;SDS011;56754;51.568;5.048;2023-11-21T13:07:59;6.28;;;2.80;;
69534;SDS011;56754;51.568;5.048;2023-11-21T13:10:27;6.27;;;2.83;;
69534;SDS011;56754;51.568;5.048;2023-11-21T13:12:52;6.30;;;2.80;;
69534;SDS011;56754;51.568;5.048;2023-11-21T13:15:18;6.40;;;2.60;;
69534;SDS011;56754;51.568;5.048;2023-11-21T13:17:46;7.97;;;3.00;;
69534;SDS011;56754;51.568;5.048;2023-11-21T13:20:12;6.22;;;3.00;;
69534;SDS011;56754;51.568;5.048;2023-11-21T13:22:37;6.25;;;2.58;;
69534;SDS011;56754;51.568;5.048;2023-11-21T13:25:03;6.10;;;2.67;;
69534;SDS011;56754;51.568;5.048;2023-11-21T13:27:28;20.10;;;3.73;;
69534;SDS011;56754;51.568;5.048;2023-11-21T13:29:53;9.73;;;3.73;;
69534;SDS011;56754;51.568;5.048;2023-11-21T13:32:18;9.20;;;2.90;;
69534;SDS011;56754;51.568;5.048;2023-11-21T13:34:44;8.03;;;3.20;;
69534;SDS011;56754;51.568;5.048;2023-11-21T13:37:09;7.00;;;2.67;;
69534;SDS011;56754;51.568;5.048;2023-11-21T13:39:34;9.47;;;4.07;;
69534;SDS011;56754;51.568;5.048;2023-11-21T13:42:00;7.63;;;3.63;;
69534;SDS011;56754;51.568;5.048;2023-11-21T13:44:25;7.83;;;3.63;;
69534;SDS011;56754;51.568;5.048;2023-11-21T13:46:50;7.33;;;3.40;;
69534;SDS011;56754;51.568;5.048;2023-11-21T13:49:15;8.87;;;4.07;;
69534;SDS011;56754;51.568;5.048;2023-11-21T13:51:41;9.03;;;4.03;;
69534;SDS011;56754;51.568;5.048;2023-11-21T13:54:06;9.60;;;3.55;;
69534;SDS011;56754;51.568;5.048;2023-11-21T13:56:31;9.00;;;3.80;;
69534;SDS011;56754;51.568;5.048;2023-11-21T13:58:57;8.13;;;3.27;;
69534;SDS011;56754;51.568;5.048;2023-11-21T14:01:26;17.17;;;4.33;;
69534;SDS011;56754;51.568;5.048;2023-11-21T14:03:51;10.38;;;3.63;;
69534;SDS011;56754;51.568;5.048;2023-11-21T14:06:16;8.03;;;3.10;;
69534;SDS011;56754;51.568;5.048;2023-11-21T14:08:42;10.00;;;3.50;;
69534;SDS011;56754;51.568;5.048;2023-11-21T14:11:07;9.43;;;3.57;;
69534;SDS011;56754;51.568;5.048;2023-11-21T14:13:33;8.40;;;3.65;;
69534;SDS011;56754;51.568;5.048;2023-11-21T14:15:58;7.40;;;3.27;;
69534;SDS011;56754;51.568;5.048;2023-11-21T14:18:24;8.03;;;3.40;;
69534;SDS011;56754;51.568;5.048;2023-11-21T14:20:50;7.35;;;3.25;;
69534;SDS011;56754;51.568;5.048;2023-11-21T14:23:15;7.63;;;3.20;;
69534;SDS011;56754;51.568;5.048;2023-11-21T14:25:40;6.63;;;2.83;;
69534;SDS011;56754;51.568;5.048;2023-11-21T14:28:05;7.27;;;3.20;;
69534;SDS011;56754;51.568;5.048;2023-11-21T14:30:31;8.50;;;3.10;;
69534;SDS011;56754;51.568;5.048;2023-11-21T14:32:59;6.27;;;2.80;;
69534;SDS011;56754;51.568;5.048;2023-11-21T14:35:25;7.00;;;2.87;;
69534;SDS011;56754;51.568;5.048;2023-11-21T14:37:50;6.50;;;2.83;;
69534;SDS011;56754;51.568;5.048;2023-11-21T14:40:15;6.43;;;2.70;;
69534;SDS011;56754;51.568;5.048;2023-11-21T14:42:41;6.20;;;2.50;;
69534;SDS011;56754;51.568;5.048;2023-11-21T14:45:09;5.80;;;2.50;;
69534;SDS011;56754;51.568;5.048;2023-11-21T14:47:35;7.70;;;2.60;;
69534;SDS011;56754;51.568;5.048;2023-11-21T14:50:03;7.00;;;2.50;;